createdAt,value
2019-05-17T00:02:03.611Z,97894.99
2019-05-17T00:04:36.365Z,97897.25
2019-05-17T00:07:08.704Z,97900.39
2019-05-17T00:09:41.057Z,97891.35
2019-05-17T00:12:13.470Z,97893.61
2019-05-17T00:14:47.297Z,97881.92
2019-05-17T00:17:19.147Z,97879.36
2019-05-17T00:19:51.210Z,97881.63
2019-05-17T00:22:23.144Z,97881.42
2019-05-17T00:24:56.825Z,97878.17
2019-05-17T00:27:29.064Z,97871.48
2019-05-17T00:30:01.204Z,97874.44
2019-05-17T00:32:36.930Z,97874.05
2019-05-17T00:35:09.076Z,97874.98
2019-05-17T00:37:41.248Z,97870.16
2019-05-17T00:40:16.384Z,97866.63
2019-05-17T00:42:47.491Z,97877.81
2019-05-17T00:45:19.435Z,97877.42
2019-05-17T00:47:51.450Z,97872.52
2019-05-17T00:50:23.430Z,97872.81
2019-05-17T00:52:56.642Z,97868.98
2019-05-17T00:55:28.846Z,97866.48
2019-05-17T00:58:00.801Z,97863.78
2019-05-17T01:00:32.873Z,97865.70
2019-05-17T01:03:06.933Z,97862.71
2019-05-17T01:05:38.610Z,97863.23
2019-05-17T01:08:10.844Z,97866.48
2019-05-17T01:10:43.014Z,97868.50
2019-05-17T01:13:17.132Z,97863.62
2019-05-17T01:15:48.765Z,97865.53
2019-05-17T01:18:21.004Z,97871.34
2019-05-17T01:20:53.021Z,97870.89
2019-05-17T01:23:26.983Z,97864.25
2019-05-17T01:25:58.781Z,97867.10
2019-05-17T01:28:30.788Z,97863.80
2019-05-17T01:31:02.816Z,97867.39
2019-05-17T01:33:36.701Z,97861.83
2019-05-17T01:36:08.478Z,97865.26
2019-05-17T01:38:41.154Z,97866.94
2019-05-17T01:41:13.200Z,97858.23
2019-05-17T01:43:47.295Z,97852.44
2019-05-17T01:46:18.898Z,97857.59
2019-05-17T01:48:51.262Z,97861.86
2019-05-17T01:51:23.260Z,97857.78
2019-05-17T01:53:57.221Z,97851.05
2019-05-17T01:56:28.963Z,97852.66
2019-05-17T01:59:01.250Z,97862.19
2019-05-17T02:01:33.375Z,97862.38
2019-05-17T02:04:06.627Z,97859.06
2019-05-17T02:06:38.905Z,97854.59
2019-05-17T02:09:10.890Z,97856.60
2019-05-17T02:11:42.906Z,97855.27
2019-05-17T02:14:16.565Z,97854.72
2019-05-17T02:16:48.737Z,97853.78
2019-05-17T02:19:20.702Z,97857.77
2019-05-17T02:21:52.724Z,97855.11
2019-05-17T02:24:24.759Z,97855.40
2019-05-17T02:26:57.068Z,97854.45
2019-05-17T02:29:29.222Z,97848.47
2019-05-17T02:32:03.914Z,97849.89
2019-05-17T02:34:35.120Z,97846.95
2019-05-17T02:37:07.102Z,97838.49
2019-05-17T02:39:56.535Z,97837.55
2019-05-17T02:42:13.920Z,97840.50
2019-05-17T02:44:45.983Z,97844.58
2019-05-17T02:47:17.951Z,97846.46
2019-05-17T02:49:52.375Z,97851.29
2019-05-17T02:52:23.882Z,97853.88
2019-05-17T02:54:55.881Z,97852.61
2019-05-17T02:57:27.848Z,97853.75
2019-05-17T03:00:04.028Z,97854.50
2019-05-17T03:02:34.330Z,97850.88
2019-05-17T03:05:07.095Z,97840.61
2019-05-17T03:07:39.104Z,97848.29
2019-05-17T03:10:22.179Z,97853.50
2019-05-17T03:12:45.361Z,97850.84
2019-05-17T03:15:17.325Z,97850.56
2019-05-17T03:17:49.291Z,97851.56
2019-05-17T03:20:23.273Z,97854.47
2019-05-17T03:22:55.013Z,97854.47
2019-05-17T03:25:26.981Z,97854.02
2019-05-17T03:27:58.949Z,97850.69
2019-05-17T03:30:36.757Z,97848.81
2019-05-17T03:33:07.800Z,97853.08
2019-05-17T03:35:45.201Z,97859.95
2019-05-17T03:38:14.230Z,97860.02
2019-05-17T03:41:07.494Z,97868.50
2019-05-17T03:43:22.597Z,97865.94
2019-05-17T03:45:53.866Z,97865.62
2019-05-17T03:48:25.894Z,97868.81
2019-05-17T03:50:58.009Z,97870.79
2019-05-17T03:53:33.160Z,97866.91
2019-05-17T03:56:04.066Z,97868.39
2019-05-17T03:58:36.021Z,97862.92
2019-05-17T04:01:08.171Z,97865.88
2019-05-17T04:03:43.499Z,97865.58
2019-05-17T04:06:14.144Z,97861.36
2019-05-17T04:08:46.097Z,97865.34
2019-05-17T04:11:27.831Z,97868.54
2019-05-17T04:13:53.774Z,97875.81
2019-05-17T04:16:25.499Z,97877.98
2019-05-17T04:18:57.460Z,97890.16
2019-05-17T04:21:29.469Z,97884.80
2019-05-17T04:24:03.460Z,97887.21
2019-05-17T04:26:35.474Z,97883.84
2019-05-17T04:29:07.492Z,97890.36
2019-05-17T04:31:43.108Z,97884.04
2019-05-17T04:34:13.835Z,97889.30
2019-05-17T04:36:45.937Z,97887.25
2019-05-17T04:39:17.960Z,97888.81
2019-05-17T04:41:54.644Z,97890.55
2019-05-17T04:44:24.083Z,97895.39
2019-05-17T04:46:56.072Z,97891.70
2019-05-17T04:49:28.088Z,97892.77
2019-05-17T04:52:03.096Z,97896.17
2019-05-17T04:54:33.895Z,97896.94
2019-05-17T04:57:05.876Z,97887.91
2019-05-17T04:59:37.838Z,97886.34
2019-05-17T05:02:12.902Z,97889.87
2019-05-17T05:04:43.916Z,97883.95
2019-05-17T05:07:16.061Z,97881.39
2019-05-17T05:09:48.097Z,97883.43
2019-05-17T05:12:22.864Z,97883.51
2019-05-17T05:14:54.109Z,97890.59
2019-05-17T05:17:26.096Z,97885.19
2019-05-17T05:19:58.065Z,97883.59
2019-05-17T05:22:32.966Z,97888.05
2019-05-17T05:25:06.410Z,97887.59
2019-05-17T05:27:38.417Z,97879.59
2019-05-17T05:30:12.067Z,97878.05
2019-05-17T05:32:44.327Z,97873.75
2019-05-17T05:35:16.320Z,97876.16
2019-05-17T05:37:48.268Z,97875.47
2019-05-17T05:40:21.408Z,97878.09
2019-05-17T05:42:53.512Z,97876.89
2019-05-17T05:45:25.471Z,97877.04
2019-05-17T05:47:57.450Z,97874.34
2019-05-17T05:50:32.186Z,97882.30
2019-05-17T05:53:03.174Z,97888.25
2019-05-17T05:55:36.098Z,97888.36
2019-05-17T05:58:08.106Z,97893.31
2019-05-17T06:00:42.539Z,97896.81
2019-05-17T06:03:13.893Z,97894.27
2019-05-17T06:05:45.944Z,97896.22
2019-05-17T06:08:18.000Z,97886.31
2019-05-17T06:10:52.893Z,97897.08
2019-05-17T06:13:23.686Z,97898.03
2019-05-17T06:15:55.944Z,97899.84
2019-05-17T06:18:28.011Z,97905.83
2019-05-17T06:21:02.736Z,97909.33
2019-05-17T06:23:34.782Z,97907.05
2019-05-17T06:26:06.799Z,97904.06
2019-05-17T06:28:39.615Z,97905.87
2019-05-17T06:31:11.766Z,97905.03
2019-05-17T06:33:43.836Z,97909.94
2019-05-17T06:36:15.871Z,97918.40
2019-05-17T06:38:47.938Z,97912.06
2019-05-17T06:41:21.528Z,97908.79
2019-05-17T06:43:53.710Z,97912.81
2019-05-17T06:46:25.801Z,97914.48
2019-05-17T06:48:57.863Z,97911.73
2019-05-17T06:51:31.601Z,97915.73
2019-05-17T06:54:03.713Z,97914.39
2019-05-17T06:56:35.772Z,97915.56
2019-05-17T06:59:07.740Z,97921.56
2019-05-17T07:01:40.979Z,97916.55
2019-05-17T07:04:13.179Z,97911.89
2019-05-17T07:06:46.842Z,97908.95
2019-05-17T07:09:19.537Z,97911.25
2019-05-17T07:11:51.611Z,97911.72
2019-05-17T07:14:23.622Z,97910.80
2019-05-17T07:16:55.680Z,97909.30
2019-05-17T07:19:30.257Z,97912.34
2019-05-17T07:22:02.235Z,97921.30
2019-05-17T07:24:34.251Z,97913.80
2019-05-17T07:27:06.292Z,97916.81
2019-05-17T07:29:40.200Z,97917.83
2019-05-17T07:32:12.140Z,97911.78
2019-05-17T07:34:44.513Z,97910.53
2019-05-17T07:37:16.504Z,97914.44
2019-05-17T07:40:00.500Z,97914.43
2019-05-17T07:42:22.260Z,97923.02
2019-05-17T07:44:54.297Z,97916.67
2019-05-17T07:47:26.343Z,97915.77
2019-05-17T07:50:00.917Z,97913.50
2019-05-17T07:52:34.007Z,97909.03
2019-05-17T07:55:07.201Z,97911.91
2019-05-17T07:57:40.867Z,97912.92
2019-05-17T08:00:16.826Z,97903.36
2019-05-17T08:02:50.631Z,97901.10
2019-05-17T08:05:22.684Z,97896.92
2019-05-17T08:07:54.666Z,97892.39
2019-05-17T08:10:26.719Z,97894.31
2019-05-17T08:13:00.198Z,97896.30
2019-05-17T08:15:32.181Z,97889.70
2019-05-17T08:18:04.209Z,97876.56
2019-05-17T08:20:36.323Z,97858.10
2019-05-17T08:23:10.536Z,97845.98
2019-05-17T08:25:52.635Z,97844.66
2019-05-17T08:28:16.166Z,97835.26
2019-05-17T08:30:50.143Z,97833.80
2019-05-17T08:33:21.982Z,97839.09
2019-05-17T08:35:54.013Z,97832.39
2019-05-17T08:38:26.068Z,97832.67
2019-05-17T08:41:00.514Z,97837.16
2019-05-17T08:43:43.104Z,97840.83
2019-05-17T08:46:05.618Z,97837.42
2019-05-17T08:48:40.125Z,97843.36
2019-05-17T08:51:12.237Z,97841.14
2019-05-17T08:53:44.246Z,97845.09
2019-05-17T08:56:16.231Z,97858.45
2019-05-17T08:58:49.805Z,97858.78
2019-05-17T09:01:22.014Z,97859.92
2019-05-17T09:03:54.010Z,97861.73
2019-05-17T09:06:29.291Z,97854.77
2019-05-17T09:09:02.311Z,97856.79
2019-05-17T09:11:34.344Z,97856.41
2019-05-17T09:14:06.379Z,97852.37
2019-05-17T09:16:40.324Z,97853.06
2019-05-17T09:19:12.508Z,97852.84
2019-05-17T09:21:44.584Z,97855.80
2019-05-17T09:24:16.665Z,97860.07
2019-05-17T09:26:49.235Z,97850.78
2019-05-17T09:29:21.474Z,97856.61
2019-05-17T09:31:53.469Z,97851.69
2019-05-17T09:34:25.507Z,97853.71
2019-05-17T09:37:00.148Z,97850.66
2019-05-17T09:39:31.659Z,97855.37
2019-05-17T09:42:04.635Z,97852.78
2019-05-17T09:44:36.636Z,97847.20
2019-05-17T09:47:12.638Z,97851.20
2019-05-17T09:49:44.778Z,97846.34
2019-05-17T09:52:16.790Z,97833.56
2019-05-17T09:54:50.452Z,97841.47
2019-05-17T09:57:22.692Z,97839.70
2019-05-17T09:59:55.986Z,97838.55
2019-05-17T10:02:28.527Z,97833.60
2019-05-17T10:05:01.263Z,97835.33
2019-05-17T10:07:33.266Z,97827.36
2019-05-17T10:10:06.075Z,97823.75
2019-05-17T10:12:40.448Z,97820.17
2019-05-17T10:15:12.746Z,97820.98
2019-05-17T10:17:44.728Z,97823.30
2019-05-17T10:20:16.700Z,97827.69
2019-05-17T10:22:50.447Z,97824.46
2019-05-17T10:25:22.774Z,97824.23
2019-05-17T10:27:54.741Z,97823.75
2019-05-17T10:30:26.876Z,97815.08
2019-05-17T10:33:00.077Z,97819.05
2019-05-17T10:35:32.260Z,97806.63
2019-05-17T10:38:04.280Z,97799.15
2019-05-17T10:40:36.376Z,97788.89
2019-05-17T10:43:10.072Z,97765.88
2019-05-17T10:45:42.169Z,97744.25
2019-05-17T10:48:14.772Z,97727.45
2019-05-17T10:50:46.802Z,97729.03
2019-05-17T10:53:20.435Z,97727.98
2019-05-17T10:55:52.812Z,97728.03
2019-05-17T10:58:24.907Z,97723.12
2019-05-17T11:00:57.152Z,97722.30
2019-05-17T11:03:29.645Z,97728.07
2019-05-17T11:06:02.254Z,97724.84
2019-05-17T11:08:34.644Z,97727.48
2019-05-17T11:11:06.706Z,97729.60
2019-05-17T11:13:38.812Z,97725.78
2019-05-17T11:16:11.709Z,97734.31
2019-05-17T11:18:43.696Z,97731.73
2019-05-17T11:21:16.069Z,97735.23
2019-05-17T11:23:48.104Z,97737.51
2019-05-17T11:26:22.773Z,97730.94
2019-05-17T11:28:54.766Z,97725.67
2019-05-17T11:31:26.782Z,97736.45
2019-05-17T11:33:58.782Z,97743.33
2019-05-17T11:36:31.310Z,97745.58
2019-05-17T11:39:11.278Z,97747.73
2019-05-17T11:41:43.448Z,97754.61
2019-05-17T11:44:15.554Z,97753.51
2019-05-17T11:46:47.597Z,97761.19
2019-05-17T11:49:21.169Z,97760.46
2019-05-17T11:51:53.249Z,97759.94
2019-05-17T11:54:26.519Z,97765.14
2019-05-17T11:57:00.456Z,97759.44
2019-05-17T11:59:32.680Z,97755.70
2019-05-17T12:02:09.093Z,97766.10
2019-05-17T12:04:41.110Z,97756.08
2019-05-17T12:07:13.128Z,97763.82
2019-05-17T12:09:45.583Z,97763.16
2019-05-17T12:12:17.627Z,97767.11
2019-05-17T12:14:50.311Z,97763.48
2019-05-17T12:17:22.330Z,97770.55
2019-05-17T12:19:55.398Z,97763.77
2019-05-17T12:22:27.473Z,97770.70
2019-05-17T12:25:00.076Z,97770.09
2019-05-17T12:27:32.733Z,97764.09
2019-05-17T12:30:05.421Z,97763.99
2019-05-17T12:32:38.288Z,97759.09
2019-05-17T12:35:10.522Z,97757.63
2019-05-17T12:37:42.649Z,97750.83
2019-05-17T12:40:15.380Z,97755.02
2019-05-17T12:42:47.346Z,97750.08
2019-05-17T12:45:19.425Z,97756.55
2019-05-17T12:47:51.432Z,97745.15
2019-05-17T12:50:23.486Z,97747.00
2019-05-17T12:52:55.932Z,97748.52
2019-05-17T12:55:27.923Z,97750.88
2019-05-17T12:58:00.374Z,97751.19
2019-05-17T13:00:32.596Z,97742.95
2019-05-17T13:03:05.442Z,97749.50
2019-05-17T13:05:37.459Z,97753.96
2019-05-17T13:08:10.041Z,97753.64
2019-05-17T13:10:42.077Z,97750.88
2019-05-17T13:13:14.043Z,97748.98
2019-05-17T13:15:46.217Z,97747.98
2019-05-17T13:18:18.309Z,97751.42
2019-05-17T13:20:50.380Z,97750.81
2019-05-17T13:23:22.434Z,97752.21
2019-05-17T13:25:54.598Z,97744.94
2019-05-17T13:28:26.653Z,97744.08
2019-05-17T13:30:58.688Z,97750.63
2019-05-17T13:33:30.760Z,97748.25
2019-05-17T13:36:02.920Z,97743.48
2019-05-17T13:38:34.985Z,97739.70
2019-05-17T13:41:07.045Z,97743.94
2019-05-17T13:43:39.126Z,97734.17
2019-05-17T13:46:12.014Z,97739.94
2019-05-17T13:48:44.116Z,97741.78
2019-05-17T13:51:16.127Z,97736.11
2019-05-17T13:53:48.117Z,97740.38
2019-05-17T13:56:20.411Z,97739.17
2019-05-17T13:58:54.642Z,97742.27
2019-05-17T14:01:26.698Z,97742.70
2019-05-17T14:03:58.707Z,97738.84
2019-05-17T14:06:30.703Z,97739.88
2019-05-17T14:09:02.916Z,97738.44
2019-05-17T14:11:36.557Z,97737.64
2019-05-17T14:14:09.702Z,97733.42
2019-05-17T14:16:41.715Z,97737.56
2019-05-17T14:19:13.788Z,97744.19
2019-05-17T14:21:45.796Z,97744.34
2019-05-17T14:24:17.780Z,97737.31
2019-05-17T14:26:49.772Z,97736.67
2019-05-17T14:29:21.989Z,97736.58
2019-05-17T14:31:54.371Z,97742.69
2019-05-17T14:34:26.376Z,97739.42
2019-05-17T14:36:58.376Z,97739.73
2019-05-17T14:39:30.632Z,97740.94
2019-05-17T14:42:02.816Z,97739.80
2019-05-17T14:44:34.792Z,97749.22
2019-05-17T14:47:06.813Z,97751.48
2019-05-17T14:49:38.850Z,97751.42
2019-05-17T14:52:10.840Z,97753.91
2019-05-17T14:54:42.889Z,97754.17
2019-05-17T14:57:14.886Z,97750.42
2019-05-17T14:59:46.843Z,97754.00
2019-05-17T15:02:18.891Z,97758.11
2019-05-17T15:04:51.206Z,97760.05
2019-05-17T15:07:23.212Z,97777.70
2019-05-17T15:09:55.269Z,97773.25
2019-05-17T15:12:28.901Z,97771.30
2019-05-17T15:15:01.190Z,97775.60
2019-05-17T15:17:35.253Z,97776.15
2019-05-17T15:20:07.334Z,97776.48
2019-05-17T15:22:40.391Z,97787.94
2019-05-17T15:25:12.515Z,97776.09
2019-05-17T15:27:44.585Z,97781.98
2019-05-17T15:30:16.868Z,97796.98
2019-05-17T15:32:48.876Z,97792.30
2019-05-17T15:35:20.847Z,97794.83
2019-05-17T15:37:52.832Z,97782.60
2019-05-17T15:40:24.832Z,97774.95
2019-05-17T15:42:56.820Z,97772.02
2019-05-17T15:45:28.819Z,97771.95
2019-05-17T15:48:01.095Z,97768.19
2019-05-17T15:50:33.613Z,97772.22
2019-05-17T15:53:05.646Z,97772.58
2019-05-17T15:55:38.860Z,97777.01
2019-05-17T15:58:11.114Z,97782.27
2019-05-17T16:00:43.417Z,97782.20
2019-05-17T16:03:15.435Z,97785.28
2019-05-17T16:05:47.472Z,97791.91
2019-05-17T16:08:19.452Z,97799.31
2019-05-17T16:10:51.477Z,97794.59
2019-05-17T16:13:23.457Z,97791.80
2019-05-17T16:15:55.438Z,97787.96
2019-05-17T16:18:27.418Z,97784.12
2019-05-17T16:21:00.071Z,97788.22
2019-05-17T16:23:32.098Z,97787.38
2019-05-17T16:26:04.526Z,97785.89
2019-05-17T16:28:36.667Z,97794.70
2019-05-17T16:31:08.676Z,97788.51
2019-05-17T16:33:40.946Z,97793.56
2019-05-17T16:36:12.922Z,97798.95
2019-05-17T16:38:44.929Z,97791.81
2019-05-17T16:41:16.891Z,97793.91
2019-05-17T16:43:48.996Z,97794.17
2019-05-17T16:46:21.083Z,97791.55
2019-05-17T16:48:53.119Z,97782.45
2019-05-17T16:51:25.082Z,97775.00
2019-05-17T16:53:57.146Z,97770.86
2019-05-17T16:56:29.196Z,97774.53
2019-05-17T16:59:01.320Z,97773.30
2019-05-17T17:01:33.326Z,97776.20
2019-05-17T17:04:05.628Z,97781.36
2019-05-17T17:06:37.776Z,97782.34
2019-05-17T17:09:10.292Z,97780.59
2019-05-17T17:11:45.746Z,97772.70
2019-05-17T17:14:17.496Z,97764.64
2019-05-17T17:16:49.514Z,97768.91
2019-05-17T17:19:21.466Z,97776.91
2019-05-17T17:21:53.479Z,97779.66
2019-05-17T17:24:25.495Z,97785.03
2019-05-17T17:26:57.452Z,97781.86
2019-05-17T17:29:29.516Z,97779.91
2019-05-17T17:32:01.570Z,97778.77
2019-05-17T17:34:33.980Z,97781.75
2019-05-17T17:37:07.458Z,97782.84
2019-05-17T17:39:39.488Z,97782.09
2019-05-17T17:42:11.585Z,97783.87
2019-05-17T17:44:43.839Z,97777.98
2019-05-17T17:47:15.984Z,97777.30
2019-05-17T17:49:47.951Z,97783.77
2019-05-17T17:52:20.251Z,97782.80
2019-05-17T17:54:53.607Z,97780.03
2019-05-17T17:57:25.672Z,97778.09
2019-05-17T17:59:57.656Z,97773.60
2019-05-17T18:02:29.703Z,97781.67
2019-05-17T18:05:01.673Z,97786.69
2019-05-17T18:07:33.807Z,97790.93
2019-05-17T18:10:06.689Z,97791.39
2019-05-17T18:12:40.669Z,97788.13
2019-05-17T18:15:13.905Z,97795.68
2019-05-17T18:17:45.916Z,97792.77
2019-05-17T18:20:17.904Z,97786.66
2019-05-17T18:22:50.274Z,97778.99
2019-05-17T18:25:22.339Z,97775.22
2019-05-17T18:27:54.306Z,97768.40
2019-05-17T18:30:26.337Z,97772.52
2019-05-17T18:32:58.349Z,97773.87
2019-05-17T18:35:30.726Z,97775.80
2019-05-17T18:38:03.112Z,97774.59
2019-05-17T18:40:35.128Z,97781.74
2019-05-17T18:43:07.269Z,97783.08
2019-05-17T18:45:39.310Z,97784.67
2019-05-17T18:48:11.287Z,97788.58
2019-05-17T18:50:43.318Z,97789.92
2019-05-17T18:53:16.946Z,97803.06
2019-05-17T18:55:49.089Z,97794.44
2019-05-17T18:58:21.153Z,97798.69
2019-05-17T19:00:53.163Z,97804.16
2019-05-17T19:03:25.400Z,97807.21
2019-05-17T19:05:57.396Z,97810.85
2019-05-17T19:08:30.021Z,97815.48
2019-05-17T19:11:02.084Z,97817.69
2019-05-17T19:13:34.052Z,97827.77
2019-05-17T19:16:06.206Z,97822.54
2019-05-17T19:18:38.227Z,97818.66
2019-05-17T19:21:11.976Z,97821.91
2019-05-17T19:23:43.990Z,97819.34
2019-05-17T19:26:15.953Z,97822.47
2019-05-17T19:28:47.942Z,97827.55
2019-05-17T19:31:19.981Z,97823.00
2019-05-17T19:33:52.073Z,97824.52
2019-05-17T19:36:24.032Z,97829.95
2019-05-17T19:38:56.040Z,97827.87
2019-05-17T19:41:28.044Z,97831.33
2019-05-17T19:43:59.999Z,97825.35
2019-05-17T19:46:32.126Z,97832.69
2019-05-17T19:49:04.186Z,97831.05
2019-05-17T19:51:36.193Z,97833.97
2019-05-17T19:54:08.222Z,97839.50
2019-05-17T19:56:40.690Z,97840.34
2019-05-17T19:59:12.770Z,97832.33
2019-05-17T20:01:44.872Z,97839.88
2019-05-17T20:04:16.915Z,97837.92
2019-05-17T20:06:48.966Z,97837.22
2019-05-17T20:09:21.224Z,97827.80
2019-05-17T20:11:53.257Z,97826.85
2019-05-17T20:14:25.230Z,97825.30
2019-05-17T20:16:57.281Z,97825.94
2019-05-17T20:19:29.312Z,97824.73
2019-05-17T20:22:01.384Z,97827.91
2019-05-17T20:24:33.350Z,97827.31
2019-05-17T20:27:05.373Z,97829.70
2019-05-17T20:29:37.392Z,97835.05
2019-05-17T20:32:09.970Z,97831.16
2019-05-17T20:34:42.086Z,97831.66
2019-05-17T20:37:14.050Z,97839.88
2019-05-17T20:39:46.019Z,97836.19
2019-05-17T20:42:18.051Z,97836.96
2019-05-17T20:44:50.621Z,97832.06
2019-05-17T20:47:22.727Z,97825.00
2019-05-17T20:49:54.724Z,97818.77
2019-05-17T20:52:26.746Z,97812.74
2019-05-17T20:54:58.789Z,97817.56
2019-05-17T20:57:31.211Z,97820.35
2019-05-17T21:00:03.339Z,97818.76
2019-05-17T21:02:35.342Z,97820.84
2019-05-17T21:05:08.378Z,97816.46
2019-05-17T21:07:40.468Z,97813.80
2019-05-17T21:10:12.654Z,97814.75
2019-05-17T21:12:44.761Z,97801.88
2019-05-17T21:15:17.428Z,97806.08
2019-05-17T21:17:56.335Z,97802.60
2019-05-17T21:20:28.698Z,97801.56
2019-05-17T21:23:01.037Z,97804.83
2019-05-17T21:25:34.137Z,97800.36
2019-05-17T21:28:06.126Z,97792.98
2019-05-17T21:30:38.240Z,97800.03
2019-05-17T21:33:10.211Z,97792.66
2019-05-17T21:35:42.207Z,97793.23
2019-05-17T21:38:14.259Z,97791.20
2019-05-17T21:40:46.244Z,97792.47
2019-05-17T21:43:18.310Z,97798.66
2019-05-17T21:46:02.644Z,97798.97
2019-05-17T21:48:24.009Z,97804.19
2019-05-17T21:50:56.011Z,97801.33
2019-05-17T21:53:27.988Z,97808.67
2019-05-17T21:56:00.314Z,97807.16
2019-05-17T21:58:33.881Z,97810.88
2019-05-17T22:01:20.192Z,97798.55
2019-05-17T22:03:52.574Z,97799.72
2019-05-17T22:06:24.825Z,97803.73
2019-05-17T22:08:56.751Z,97803.19
2019-05-17T22:11:28.814Z,97807.31
2019-05-17T22:14:01.197Z,97807.42
2019-05-17T22:16:33.177Z,97806.22
2019-05-17T22:19:05.204Z,97811.45
2019-05-17T22:21:37.214Z,97811.84
2019-05-17T22:24:09.207Z,97812.63
2019-05-17T22:26:41.366Z,97815.02
2019-05-17T22:29:13.424Z,97813.59
2019-05-17T22:31:45.430Z,97812.86
2019-05-17T22:34:17.497Z,97811.53
2019-05-17T22:36:49.618Z,97812.77
2019-05-17T22:39:22.244Z,97814.76
2019-05-17T22:41:54.240Z,97823.50
2019-05-17T22:44:26.356Z,97819.52
2019-05-17T22:46:58.381Z,97818.11
2019-05-17T22:49:30.403Z,97815.34
2019-05-17T22:52:02.389Z,97817.44
2019-05-17T22:54:34.343Z,97816.73
2019-05-17T22:57:06.411Z,97811.13
2019-05-17T22:59:38.510Z,97817.95
2019-05-17T23:02:10.915Z,97817.20
2019-05-17T23:04:42.924Z,97816.99
2019-05-17T23:07:14.905Z,97817.09
2019-05-17T23:09:46.904Z,97810.06
2019-05-17T23:12:18.950Z,97804.30
2019-05-17T23:14:51.411Z,97803.91
2019-05-17T23:17:23.415Z,97800.09
2019-05-17T23:19:55.507Z,97801.72
2019-05-17T23:22:27.532Z,97804.73
2019-05-17T23:24:59.506Z,97806.92
2019-05-17T23:27:31.517Z,97800.28
2019-05-17T23:30:03.587Z,97791.45
2019-05-17T23:32:35.595Z,97794.98
2019-05-17T23:35:08.969Z,97792.99
2019-05-17T23:37:41.113Z,97795.65
2019-05-17T23:40:13.534Z,97793.84
2019-05-17T23:42:45.569Z,97789.84
2019-05-17T23:45:17.524Z,97794.39
2019-05-17T23:47:49.546Z,97787.41
2019-05-17T23:50:21.662Z,97789.00
2019-05-17T23:52:53.635Z,97791.65
2019-05-17T23:55:25.609Z,97785.01
2019-05-17T23:57:57.574Z,97788.50
